Time;durP1;ratioP1;P1;durP2;ratioP2;P2;SDS_P1;SDS_P2;PMS_P1;PMS_P2;Temp;Humidity;BMP_temperature;BMP_pressure;BME280_temperature;BME280_humidity;BME280_pressure;Samples;Min_cycle;Max_cycle;Signal;HPM_P1;HPM_P2
2021/09/23 00:00:28;;;;;;;16.30;13.00;;;;;;;14.14;100.00;100029.87;1721560;81;21437;-73
2021/09/23 00:05:29;;;;;;;15.00;12.00;;;;;;;14.58;100.00;100025.53;1693100;82;21310;-67
2021/09/23 00:07:58;;;;;;;13.60;11.83;;;;;;;14.46;100.00;100021.45;1692315;82;21283;-73
2021/09/23 00:10:28;;;;;;;14.57;12.43;;;;;;;14.03;100.00;100026.61;1694377;82;21474;-73
2021/09/23 00:12:56;;;;;;;;;;;;;;;14.03;100.00;100026.61;1712164;82;21741;-68
2021/09/23 00:15:23;;;;;;;17.10;11.77;;;;;;;14.14;100.00;100024.63;1711197;82;21071;-69
2021/09/23 00:17:58;;;;;;;13.77;11.33;;;;;;;14.29;100.00;100023.81;1690717;82;21295;-73
2021/09/23 00:20:27;;;;;;;12.53;10.33;;;;;;;14.47;100.00;100027.50;1690159;83;21388;-72
2021/09/23 00:22:53;;;;;;;12.30;10.53;;;;;;;14.43;100.00;100025.02;1694584;82;21897;-69
2021/09/23 00:25:21;;;;;;;13.60;11.30;;;;;;;14.12;100.00;100025.33;1699275;82;21391;-69
2021/09/23 00:27:48;;;;;;;13.40;10.83;;;;;;;14.04;100.00;100022.97;1686024;83;22091;-74
2021/09/23 00:30:15;;;;;;;14.77;11.03;;;;;;;14.11;100.00;100028.47;1696666;82;21286;-72
2021/09/23 00:32:42;;;;;;;14.67;11.67;;;;;;;14.31;100.00;100032.77;1696995;82;21350;-69
2021/09/23 00:35:10;;;;;;;14.23;11.47;;;;;;;14.19;100.00;100022.16;1694133;82;21253;-69
2021/09/23 00:37:37;;;;;;;13.63;11.47;;;;;;;13.91;100.00;100020.44;1696354;82;21472;-70
2021/09/23 00:40:08;;;;;;;15.53;12.03;;;;;;;14.15;100.00;100022.30;1695857;82;21344;-74
2021/09/23 00:42:37;;;;;;;14.43;12.30;;;;;;;14.01;100.00;100012.39;1674624;83;21208;-70
2021/09/23 00:45:06;;;;;;;14.03;11.73;;;;;;;13.62;100.00;100010.30;1694298;82;21425;-68
2021/09/23 00:47:34;;;;;;;15.93;12.50;;;;;;;13.63;100.00;100018.95;1698307;82;21391;-69
2021/09/23 00:50:02;;;;;;;16.13;13.27;;;;;;;13.95;100.00;100016.39;1707421;82;21373;-76
2021/09/23 00:52:31;;;;;;;13.47;11.33;;;;;;;13.90;100.00;100016.20;1693711;82;21442;-69
2021/09/23 00:54:58;;;;;;;14.33;11.57;;;;;;;13.74;100.00;100008.33;1685014;83;21251;-69
2021/09/23 00:57:24;;;;;;;15.33;12.87;;;;;;;13.59;100.00;100004.16;1693781;84;21353;-69
2021/09/23 00:59:54;;;;;;;15.77;12.90;;;;;;;13.64;100.00;100002.25;1654663;85;21205;-71
2021/09/23 01:02:23;;;;;;;16.60;13.97;;;;;;;13.64;100.00;100008.80;1659668;84;21314;-70
2021/09/23 01:04:51;;;;;;;17.33;13.27;;;;;;;13.74;100.00;100011.74;1678262;83;22311;-69
2021/09/23 01:07:19;;;;;;;16.20;13.00;;;;;;;13.72;100.00;100010.36;1692651;83;21840;-70
2021/09/23 01:09:51;;;;;;;16.77;13.97;;;;;;;13.72;100.00;100008.55;1689144;83;21446;-72
2021/09/23 01:12:24;;;;;;;18.50;15.30;;;;;;;13.75;100.00;100011.23;1669201;84;22530;-76
2021/09/23 01:14:53;;;;;;;15.63;12.93;;;;;;;13.74;100.00;100003.88;1699297;82;21339;-68
2021/09/23 01:17:21;;;;;;;17.43;12.63;;;;;;;13.48;100.00;100010.05;1659368;85;21312;-69
2021/09/23 01:19:54;;;;;;;16.10;13.70;;;;;;;13.37;100.00;100006.28;1657600;85;21914;-68
2021/09/23 01:22:23;;;;;;;17.53;13.77;;;;;;;13.15;100.00;100007.02;1676995;83;21229;-71
2021/09/23 01:25:10;;;;;;;16.37;13.07;;;;;;;13.32;100.00;100003.97;1690625;82;21788;-74
2021/09/23 01:27:37;;;;;;;14.87;12.40;;;;;;;13.51;100.00;100010.14;1692636;82;21326;-67
2021/09/23 01:30:07;;;;;;;16.73;13.13;;;;;;;13.56;100.00;100003.77;1696288;82;22012;-76
2021/09/23 01:32:35;;;;;;;16.90;13.60;;;;;;;13.51;100.00;100001.78;1665491;83;22699;-70
2021/09/23 01:35:03;;;;;;;17.73;15.10;;;;;;;13.71;100.00;100003.50;1687795;82;21871;-78
2021/09/23 01:37:30;;;;;;;18.93;14.47;;;;;;;13.77;100.00;99998.74;1670726;84;21511;-68
2021/09/23 01:39:56;;;;;;;15.97;12.63;;;;;;;13.81;100.00;100002.03;1689362;82;21913;-68
2021/09/23 01:42:25;;;;;;;20.60;15.07;;;;;;;14.05;100.00;100004.91;1689882;82;21210;-67
2021/09/23 01:44:55;;;;;;;16.97;13.83;;;;;;;14.09;100.00;99999.54;1691409;82;21747;-67
2021/09/23 01:47:23;;;;;;;19.00;15.60;;;;;;;14.14;100.00;99990.55;1655693;84;21373;-67
2021/09/23 01:49:51;;;;;;;18.73;14.10;;;;;;;14.14;100.00;99990.55;1687255;83;21872;-67
2021/09/23 01:52:19;;;;;;;16.47;13.00;;;;;;;13.57;100.00;99989.69;1655262;84;21304;-78
2021/09/23 01:54:49;;;;;;;16.93;14.37;;;;;;;13.57;100.00;99989.69;1657096;84;21489;-68
2021/09/23 01:57:16;;;;;;;19.40;14.50;;;;;;;13.77;100.00;99987.75;1675259;82;21315;-68
2021/09/23 01:59:45;;;;;;;17.67;15.27;;;;;;;13.89;100.00;99983.95;1687790;82;21361;-67
2021/09/23 02:02:13;;;;;;;17.10;13.27;;;;;;;13.89;100.00;99983.95;1690741;82;22152;-75
2021/09/23 02:04:40;;;;;;;16.37;12.53;;;;;;;14.16;100.00;99984.57;1691467;82;21495;-66
2021/09/23 02:07:06;;;;;;;16.47;12.57;;;;;;;14.34;100.00;99980.70;1689272;82;21091;-67
2021/09/23 02:09:33;;;;;;;18.40;12.63;;;;;;;14.30;100.00;99980.84;1695149;82;21797;-66
2021/09/23 02:12:03;;;;;;;17.17;11.73;;;;;;;14.11;100.00;99980.48;1728980;81;21309;-65
2021/09/23 02:14:32;;;;;;;13.83;11.13;;;;;;;14.22;100.00;99986.86;1726126;81;21146;-76
2021/09/23 02:16:59;;;;;;;13.20;10.53;;;;;;;14.07;100.00;99975.38;1721605;81;21233;-65
2021/09/23 02:19:30;;;;;;;13.18;11.10;;;;;;;14.40;100.00;99974.33;1713512;81;21306;-66
2021/09/23 02:22:01;;;;;;;13.40;11.00;;;;;;;14.32;100.00;99977.52;1723761;81;20991;-66
2021/09/23 02:24:29;;;;;;;14.03;10.63;;;;;;;14.08;100.00;99977.77;1720530;81;21809;-78
2021/09/23 02:26:55;;;;;;;11.73;9.93;;;;;;;14.06;100.00;99981.64;1726090;81;21437;-66
2021/09/23 02:29:22;;;;;;;13.03;9.40;;;;;;;14.28;100.00;99984.20;1722832;81;21197;-71
2021/09/23 02:31:50;;;;;;;12.13;10.03;;;;;;;14.27;100.00;99985.70;1719972;81;21233;-65
2021/09/23 02:34:17;;;;;;;13.73;10.27;;;;;;;14.15;100.00;99989.53;1726363;81;21751;-75
2021/09/23 02:36:44;;;;;;;13.27;9.83;;;;;;;14.08;100.00;99993.50;1730108;81;21295;-65
2021/09/23 02:39:10;;;;;;;11.43;9.20;;;;;;;14.38;100.00;99988.15;1698156;81;22542;-66
2021/09/23 02:41:38;;;;;;;10.30;8.47;;;;;;;14.25;100.00;99992.48;1728341;81;21403;-65
2021/09/23 02:44:04;;;;;;;10.27;8.73;;;;;;;14.32;100.00;99997.17;1732071;81;21216;-64
2021/09/23 02:46:34;;;;;;;11.77;9.33;;;;;;;14.45;100.00;99994.95;1726626;81;21220;-78
2021/09/23 02:49:01;;;;;;;10.23;7.90;;;;;;;14.71;100.00;99997.08;1728965;81;21358;-65
2021/09/23 02:51:29;;;;;;;10.07;8.60;;;;;;;14.76;100.00;99998.53;1728024;81;21299;-64
2021/09/23 02:53:56;;;;;;;11.97;9.73;;;;;;;14.63;100.00;100002.61;1730076;81;21153;-67
2021/09/23 02:56:22;;;;;;;11.23;8.63;;;;;;;14.55;100.00;99997.12;1729537;81;21829;-74
2021/09/23 02:58:50;;;;;;;10.50;8.03;;;;;;;14.96;100.00;99991.25;1724410;81;21296;-66
2021/09/23 03:01:18;;;;;;;13.50;8.97;;;;;;;14.43;100.00;99990.92;1736950;78;21683;-65
2021/09/23 03:03:46;;;;;;;10.53;8.83;;;;;;;14.19;100.00;99989.91;1738949;80;21246;-65
2021/09/23 03:06:13;;;;;;;11.70;9.53;;;;;;;13.41;100.00;99994.89;1684188;83;21312;-65
2021/09/23 03:08:41;;;;;;;13.90;9.20;;;;;;;13.45;100.00;99998.70;1729949;81;21725;-73
2021/09/23 03:11:07;;;;;;;12.57;8.97;;;;;;;13.33;100.00;99999.03;1736032;81;21257;-66
2021/09/23 03:13:35;;;;;;;11.10;8.47;;;;;;;13.12;100.00;100001.39;1714664;81;21206;-65
2021/09/23 03:16:01;;;;;;;13.53;10.37;;;;;;;13.42;100.00;99995.70;1682022;84;21176;-65
2021/09/23 03:18:29;;;;;;;13.40;10.57;;;;;;;13.49;100.00;99984.69;1734300;81;22166;-66
2021/09/23 03:20:57;;;;;;;12.93;9.50;;;;;;;13.46;100.00;99987.72;1736066;81;22227;-68
2021/09/23 03:23:25;;;;;;;10.13;8.37;;;;;;;13.33;100.00;99992.00;1732568;81;21302;-66
2021/09/23 03:25:53;;;;;;;14.17;10.10;;;;;;;13.37;100.00;99997.60;1733235;81;21093;-67
2021/09/23 03:28:21;;;;;;;11.77;9.50;;;;;;;13.44;100.00;99997.58;1737040;81;21774;-66
2021/09/23 03:30:48;;;;;;;13.00;10.83;;;;;;;13.50;100.00;100002.80;1730780;81;21987;-66
2021/09/23 03:33:14;;;;;;;12.43;9.43;;;;;;;13.00;100.00;100006.97;1730773;81;21856;-70
2021/09/23 03:35:41;;;;;;;12.87;9.90;;;;;;;13.00;100.00;100002.53;1729053;81;21170;-65
2021/09/23 03:38:09;;;;;;;13.13;9.40;;;;;;;13.07;100.00;100002.53;1730220;81;21347;-69
2021/09/23 03:40:37;;;;;;;13.03;10.13;;;;;;;13.10;100.00;100000.27;1726813;81;21243;-65
2021/09/23 03:43:03;;;;;;;12.93;10.40;;;;;;;13.37;100.00;99991.89;1729342;81;21376;-66
2021/09/23 03:45:32;;;;;;;13.17;10.50;;;;;;;13.58;100.00;99992.08;1723955;81;21260;-66
2021/09/23 03:47:59;;;;;;;14.17;10.37;;;;;;;13.51;100.00;99989.20;1721715;81;21306;-66
2021/09/23 03:50:25;;;;;;;16.80;11.60;;;;;;;13.33;100.00;99988.56;1724486;81;21301;-77
2021/09/23 03:52:53;;;;;;;13.33;11.40;;;;;;;13.33;100.00;99992.00;1697094;82;21356;-68
2021/09/23 03:55:19;;;;;;;13.07;10.10;;;;;;;13.27;100.00;99995.95;1704606;81;21390;-64
2021/09/23 03:57:46;;;;;;;13.30;10.70;;;;;;;13.18;100.00;100003.17;1723309;81;21253;-63
2021/09/23 04:00:20;;;;;;;15.07;11.37;;;;;;;13.22;100.00;99992.62;1677288;84;21658;-68
2021/09/23 04:02:48;;;;;;;13.97;10.40;;;;;;;13.03;100.00;99996.90;1714313;82;21331;-67
2021/09/23 04:05:15;;;;;;;19.20;11.90;;;;;;;13.10;100.00;99990.31;1696880;83;21781;-65
2021/09/23 04:07:43;;;;;;;12.73;9.90;;;;;;;13.43;100.00;99993.37;1738959;80;21297;-66
2021/09/23 04:10:11;;;;;;;16.07;11.93;;;;;;;13.47;100.00;99991.94;1737386;80;21406;-72
2021/09/23 04:12:40;;;;;;;16.87;12.47;;;;;;;13.55;100.00;99995.63;1736530;80;21230;-67
2021/09/23 04:15:08;;;;;;;15.17;11.13;;;;;;;13.42;100.00;99989.15;1740511;80;21105;-65
2021/09/23 04:17:35;;;;;;;13.77;11.33;;;;;;;13.39;100.00;99992.98;1737014;80;21746;-71
2021/09/23 04:20:02;;;;;;;17.03;12.13;;;;;;;13.75;100.00;99990.27;1735440;80;21902;-65
2021/09/23 04:22:31;;;;;;;16.47;11.17;;;;;;;13.89;100.00;99987.88;1714886;80;21305;-65
2021/09/23 04:24:59;;;;;;;15.33;9.97;;;;;;;13.73;100.00;99987.88;1735686;80;21359;-64
2021/09/23 04:27:27;;;;;;;12.93;10.50;;;;;;;13.61;100.00;99994.80;1738278;80;21212;-65
2021/09/23 04:29:54;;;;;;;12.40;10.37;;;;;;;13.69;100.00;99995.86;1712999;82;21362;-65
2021/09/23 04:32:22;;;;;;;16.83;12.70;;;;;;;13.54;100.00;99997.95;1712797;81;21355;-66
2021/09/23 04:34:49;;;;;;;17.17;12.03;;;;;;;13.63;100.00;99996.69;1736552;80;22777;-63
2021/09/23 04:37:16;;;;;;;13.87;10.73;;;;;;;13.62;100.00;99992.47;1679218;83;21405;-62
2021/09/23 04:39:45;;;;;;;14.03;10.77;;;;;;;13.66;100.00;99994.97;1680110;83;21266;-62
2021/09/23 04:42:14;;;;;;;15.50;11.67;;;;;;;13.66;100.00;100000.20;1736560;80;21282;-66
2021/09/23 04:44:41;;;;;;;14.07;11.40;;;;;;;13.69;100.00;100002.41;1739606;80;21318;-62
2021/09/23 04:47:07;;;;;;;13.67;10.97;;;;;;;13.91;100.00;100000.79;1741232;80;21231;-61
2021/09/23 04:49:36;;;;;;;13.87;11.23;;;;;;;13.92;100.00;100002.39;1733327;80;21193;-61
2021/09/23 04:52:04;;;;;;;16.03;11.60;;;;;;;14.00;100.00;100003.44;1711867;80;21248;-60
2021/09/23 04:54:31;;;;;;;13.67;11.23;;;;;;;14.15;100.00;100001.33;1737804;80;21400;-61
2021/09/23 04:56:57;;;;;;;15.63;12.33;;;;;;;14.15;100.00;100001.33;1738475;80;21381;-61
2021/09/23 04:59:24;;;;;;;14.43;10.57;;;;;;;14.49;100.00;100001.88;1735021;80;21285;-62
2021/09/23 05:01:52;;;;;;;15.07;11.57;;;;;;;14.31;100.00;100006.55;1731173;80;21356;-62
2021/09/23 05:04:18;;;;;;;15.20;12.07;;;;;;;14.37;100.00;100004.39;1723812;81;21235;-71
2021/09/23 05:06:45;;;;;;;14.37;12.17;;;;;;;13.31;100.00;100005.80;1729104;81;21460;-62
2021/09/23 05:09:13;;;;;;;14.90;11.43;;;;;;;13.13;100.00;100010.84;1725433;81;21345;-62
2021/09/23 05:11:43;;;;;;;15.17;11.83;;;;;;;13.15;100.00;100006.22;1728764;81;21368;-61
2021/09/23 05:14:09;;;;;;;13.27;11.17;;;;;;;13.20;100.00;100015.56;1727789;81;21778;-72
2021/09/23 05:16:43;;;;;;;15.00;10.63;;;;;;;13.19;100.00;100010.03;1724396;81;21700;-62
2021/09/23 05:19:11;;;;;;;14.27;11.33;;;;;;;13.40;100.00;100003.73;1729927;81;21295;-63
2021/09/23 05:21:38;;;;;;;13.83;11.63;;;;;;;13.53;100.00;100005.52;1728141;81;21212;-62
2021/09/23 05:24:05;;;;;;;12.77;10.20;;;;;;;13.49;100.00;100004.33;1726586;81;21879;-67
2021/09/23 05:26:32;;;;;;;15.37;12.33;;;;;;;13.46;100.00;100006.84;1725562;81;22053;-62
2021/09/23 05:29:00;;;;;;;13.53;11.30;;;;;;;13.13;100.00;100000.37;1668858;84;21522;-63
2021/09/23 05:31:26;;;;;;;13.40;11.20;;;;;;;12.98;100.00;100003.23;1695663;82;21351;-62
2021/09/23 05:33:55;;;;;;;19.00;11.83;;;;;;;13.00;100.00;100001.23;1709045;82;22056;-64
2021/09/23 05:36:22;;;;;;;13.53;12.03;;;;;;;13.16;100.00;100001.28;1727838;81;21403;-63
2021/09/23 05:38:48;;;;;;;14.23;12.20;;;;;;;13.21;100.00;100002.77;1730844;81;22138;-62
2021/09/23 05:41:15;;;;;;;13.47;11.17;;;;;;;13.21;100.00;100002.77;1728163;81;21916;-62
2021/09/23 05:43:43;;;;;;;13.00;10.37;;;;;;;13.34;100.00;99993.61;1727131;81;21539;-63
2021/09/23 05:46:10;;;;;;;13.47;11.20;;;;;;;13.58;100.00;100000.45;1728176;81;21454;-68
2021/09/23 05:48:37;;;;;;;14.03;11.53;;;;;;;13.71;100.00;99996.44;1725897;81;21426;-62
2021/09/23 05:51:03;;;;;;;12.23;9.83;;;;;;;13.71;100.00;99996.44;1723438;81;22006;-62
2021/09/23 05:53:30;;;;;;;11.87;10.23;;;;;;;13.58;100.00;99996.52;1721135;81;21622;-61
2021/09/23 05:55:56;;;;;;;12.53;9.90;;;;;;;13.59;100.00;99996.30;1724767;81;21689;-60
2021/09/23 05:58:23;;;;;;;11.33;8.77;;;;;;;13.64;100.00;99998.31;1725761;81;22010;-69
2021/09/23 06:00:50;;;;;;;12.63;10.47;;;;;;;13.61;100.00;99994.80;1726073;80;21816;-62
2021/09/23 06:03:16;;;;;;;10.30;9.10;;;;;;;13.43;100.00;100000.71;1732748;81;21708;-62
2021/09/23 06:05:43;;;;;;;16.17;8.30;;;;;;;13.35;100.00;99998.33;1730223;81;21457;-61
2021/09/23 06:08:10;;;;;;;12.20;9.97;;;;;;;13.08;100.00;100003.62;1736705;81;21413;-67
2021/09/23 06:10:38;;;;;;;12.57;10.20;;;;;;;13.08;100.00;100003.62;1699032;82;22045;-67
2021/09/23 06:13:06;;;;;;;15.13;10.37;;;;;;;13.09;100.00;100005.22;1704045;82;21643;-61
2021/09/23 06:15:33;;;;;;;12.67;9.30;;;;;;;13.07;100.00;99999.41;1736615;81;21969;-61
2021/09/23 06:18:00;;;;;;;11.20;9.30;;;;;;;13.30;100.00;99996.85;1675175;84;21932;-61
2021/09/23 06:20:28;;;;;;;12.37;10.37;;;;;;;13.53;100.00;99994.53;1730682;81;22153;-62
2021/09/23 06:22:55;;;;;;;12.10;9.90;;;;;;;13.53;100.00;99994.53;1734509;81;21554;-64
2021/09/23 06:25:23;;;;;;;12.07;10.30;;;;;;;13.34;100.00;99988.37;1666349;84;23176;-60
2021/09/23 06:27:51;;;;;;;12.13;9.13;;;;;;;13.21;100.00;99996.22;1684602;84;21720;-60
2021/09/23 06:30:17;;;;;;;11.90;9.37;;;;;;;13.04;100.00;99997.19;1690339;84;21586;-67
2021/09/23 06:32:46;;;;;;;13.73;10.83;;;;;;;13.33;100.00;99994.63;1677737;83;21359;-61
2021/09/23 06:35:12;;;;;;;13.43;10.70;;;;;;;12.77;100.00;99997.75;1676999;83;22096;-60
2021/09/23 06:37:40;;;;;;;13.33;10.07;;;;;;;12.51;100.00;100003.00;1677080;83;21438;-63
2021/09/23 06:40:09;;;;;;;10.97;9.77;;;;;;;12.52;100.00;100001.98;1677503;83;21501;-62
2021/09/23 06:42:35;;;;;;;12.00;10.00;;;;;;;12.50;100.00;100003.51;1681825;83;21694;-63
2021/09/23 06:45:04;;;;;;;12.87;9.47;;;;;;;12.63;100.00;100001.38;1679956;83;21292;-62
2021/09/23 06:47:31;;;;;;;10.90;8.57;;;;;;;12.63;100.00;100001.38;1684367;83;21740;-60
2021/09/23 06:49:59;;;;;;;12.97;10.07;;;;;;;12.61;100.00;99996.84;1680265;83;21323;-62
2021/09/23 06:52:27;;;;;;;13.73;11.03;;;;;;;12.68;100.00;99994.23;1673394;83;21441;-65
2021/09/23 06:54:54;;;;;;;13.93;10.27;;;;;;;12.90;100.00;99991.17;1675707;84;21404;-61
2021/09/23 06:57:22;;;;;;;11.40;9.50;;;;;;;12.89;100.00;99987.47;1711163;82;21500;-60
2021/09/23 07:00:08;;;;;;;13.87;11.33;;;;;;;12.95;100.00;99984.52;1714530;82;21320;-59
2021/09/23 07:02:37;;;;;;;11.90;9.80;;;;;;;12.97;100.00;99991.16;1717118;82;22738;-60
2021/09/23 07:05:11;;;;;;;11.63;10.10;;;;;;;13.18;100.00;99987.98;1711625;82;21477;-67
2021/09/23 07:07:39;;;;;;;12.23;9.30;;;;;;;13.25;100.00;99985.67;1719956;82;21571;-62
2021/09/23 07:10:07;;;;;;;11.97;10.23;;;;;;;13.22;100.00;99979.53;1708128;82;21450;-61
2021/09/23 07:12:36;;;;;;;13.93;10.40;;;;;;;13.22;100.00;99979.53;1726961;81;21489;-62
2021/09/23 07:15:06;;;;;;;13.93;10.07;;;;;;;13.25;100.00;99983.05;1728029;81;21834;-68
2021/09/23 07:17:34;;;;;;;14.23;10.23;;;;;;;13.26;100.00;99979.92;1724350;81;21502;-62
2021/09/23 07:20:03;;;;;;;12.10;10.13;;;;;;;13.23;100.00;99983.78;1720847;81;21427;-61
2021/09/23 07:22:31;;;;;;;14.77;11.50;;;;;;;13.22;100.00;99975.61;1727143;81;21864;-60
2021/09/23 07:24:57;;;;;;;14.53;11.40;;;;;;;13.29;100.00;99979.52;1726687;81;21807;-59
2021/09/23 07:27:24;;;;;;;13.53;11.50;;;;;;;13.35;100.00;99971.64;1731291;81;21686;-72
2021/09/23 07:29:53;;;;;;;14.23;10.57;;;;;;;13.33;100.00;99974.98;1724969;81;21786;-64
2021/09/23 07:32:22;;;;;;;14.43;10.10;;;;;;;13.39;100.00;99964.98;1730996;81;21787;-66
2021/09/23 07:34:49;;;;;;;14.03;11.00;;;;;;;13.43;100.00;99963.25;1725300;81;21720;-61
2021/09/23 07:37:15;;;;;;;14.57;10.73;;;;;;;13.43;100.00;99963.25;1728257;80;21558;-70
2021/09/23 07:39:42;;;;;;;14.27;10.43;;;;;;;13.34;100.00;99956.95;1723857;81;22179;-70
2021/09/23 07:42:10;;;;;;;12.67;9.87;;;;;;;13.41;100.00;99959.55;1724705;81;22033;-60
2021/09/23 07:44:40;;;;;;;17.27;10.77;;;;;;;13.42;100.00;99955.91;1671133;84;21531;-61
2021/09/23 07:47:07;;;;;;;15.60;11.63;;;;;;;13.66;100.00;99954.37;1671448;85;21667;-62
2021/09/23 07:49:34;;;;;;;15.83;11.40;;;;;;;13.85;100.00;99956.57;1726408;81;21657;-69
2021/09/23 07:52:01;;;;;;;12.60;9.97;;;;;;;13.69;100.00;99950.02;1721227;80;21834;-67
2021/09/23 07:54:28;;;;;;;13.47;10.77;;;;;;;13.69;100.00;99950.02;1726123;80;22299;-59
2021/09/23 07:56:56;;;;;;;12.70;10.40;;;;;;;13.61;100.00;99952.89;1725175;80;21751;-59
2021/09/23 07:59:24;;;;;;;13.73;10.97;;;;;;;13.48;100.00;99947.20;1726756;80;21673;-60
2021/09/23 08:01:53;;;;;;;13.77;11.37;;;;;;;13.49;100.00;99947.52;1687813;82;22035;-68
2021/09/23 08:04:20;;;;;;;16.70;11.77;;;;;;;13.47;100.00;99947.42;1728123;81;21707;-59
2021/09/23 08:06:47;;;;;;;14.67;12.13;;;;;;;13.45;100.00;99947.64;1713148;82;22277;-59
2021/09/23 08:09:15;;;;;;;15.77;11.87;;;;;;;13.45;100.00;99937.66;1720381;82;21782;-60
2021/09/23 08:11:43;;;;;;;16.67;12.13;;;;;;;13.61;100.00;99937.98;1713439;82;21691;-69
2021/09/23 08:14:14;;;;;;;14.93;12.30;;;;;;;13.53;100.00;99941.36;1716073;82;21708;-62
2021/09/23 08:16:48;;;;;;;15.73;13.10;;;;;;;13.51;100.00;99938.94;1716180;82;21754;-59
2021/09/23 08:19:21;;;;;;;14.00;11.40;;;;;;;13.55;100.00;99941.42;1694688;82;21763;-61
2021/09/23 08:21:57;;;;;;;13.50;11.93;;;;;;;13.68;100.00;99941.08;1695403;82;21767;-60
2021/09/23 08:24:24;;;;;;;14.03;12.00;;;;;;;13.71;100.00;99939.32;1703622;83;23341;-60
2021/09/23 08:26:50;;;;;;;15.93;13.47;;;;;;;13.91;100.00;99935.28;1732396;81;21775;-60
2021/09/23 08:29:17;;;;;;;15.23;12.13;;;;;;;13.93;100.00;99931.41;1703303;82;22168;-59
2021/09/23 08:31:44;;;;;;;15.07;12.17;;;;;;;14.47;100.00;99932.61;1697596;82;21725;-59
2021/09/23 08:34:12;;;;;;;15.50;11.80;;;;;;;14.47;100.00;99932.61;1699929;82;21089;-65
2021/09/23 08:36:39;;;;;;;16.70;12.90;;;;;;;14.40;100.00;99925.82;1699598;82;21802;-62
2021/09/23 08:39:10;;;;;;;16.60;13.00;;;;;;;14.29;100.00;99928.12;1700597;82;21708;-61
2021/09/23 08:41:36;;;;;;;18.00;13.47;;;;;;;14.39;100.00;99921.06;1700796;82;21801;-65
2021/09/23 08:44:04;;;;;;;15.27;12.20;;;;;;;14.43;100.00;99926.67;1699771;82;21459;-60
2021/09/23 08:46:34;;;;;;;18.00;13.33;;;;;;;14.36;100.00;99927.55;1711582;81;21685;-60
2021/09/23 08:49:01;;;;;;;15.37;12.20;;;;;;;14.60;100.00;99920.69;1709004;81;21737;-60
2021/09/23 08:51:30;;;;;;;16.43;13.23;;;;;;;14.75;100.00;99920.85;1710653;81;20990;-63
2021/09/23 08:53:58;;;;;;;14.37;10.80;;;;;;;14.45;100.00;99935.94;1709471;83;21723;-61
2021/09/23 08:56:25;;;;;;;14.80;11.37;;;;;;;14.36;100.00;99922.31;1708960;81;21060;-66
2021/09/23 08:58:53;;;;;;;13.20;11.20;;;;;;;14.32;100.00;99919.03;1711371;81;21010;-62
2021/09/23 09:01:23;;;;;;;16.00;12.87;;;;;;;14.44;100.00;99918.61;1711133;81;21147;-69
2021/09/23 09:04:02;;;;;;;15.17;11.73;;;;;;;14.37;100.00;99920.48;1709872;81;21123;-61
2021/09/23 09:07:00;;;;;;;13.00;10.60;;;;;;;14.34;100.00;99914.36;1735003;81;21167;-58
2021/09/23 09:09:31;;;;;;;14.63;11.60;;;;;;;14.33;100.00;99910.94;1727512;81;21738;-59
2021/09/23 09:11:57;;;;;;;14.53;12.77;;;;;;;14.33;100.00;99909.63;1732610;81;21130;-60
2021/09/23 09:14:30;;;;;;;13.67;12.00;;;;;;;14.35;100.00;99913.33;1736124;81;21051;-60
2021/09/23 09:17:04;;;;;;;15.93;12.20;;;;;;;14.35;100.00;99895.77;1733003;81;21046;-63
2021/09/23 09:19:51;;;;;;;16.10;13.20;;;;;;;14.45;100.00;99910.23;1737037;81;21128;-61
2021/09/23 09:22:21;;;;;;;15.03;13.43;;;;;;;14.42;100.00;99913.28;1734172;81;21519;-67
2021/09/23 09:25:04;;;;;;;16.23;14.53;;;;;;;14.46;100.00;99907.89;1737291;81;20940;-61
2021/09/23 09:27:37;;;;;;;;;;;;;;;14.36;100.00;99913.65;1728692;81;21689;-62
2021/09/23 09:30:21;;;;;;;14.93;11.37;;;;;;;14.52;100.00;99913.62;1735754;81;20484;-62
2021/09/23 09:32:52;;;;;;;14.03;11.10;;;;;;;14.62;100.00;99909.17;1733636;81;21131;-62
2021/09/23 09:35:25;;;;;;;15.23;11.73;;;;;;;14.72;100.00;99906.85;1730820;81;21460;-59
2021/09/23 09:37:54;;;;;;;12.50;10.63;;;;;;;14.55;100.00;99905.33;1725815;81;20960;-67
2021/09/23 09:40:25;;;;;;;10.27;9.17;;;;;;;14.56;100.00;99908.23;1730280;81;20952;-61
2021/09/23 09:42:54;;;;;;;10.37;8.87;;;;;;;14.60;100.00;99909.40;1725926;81;21671;-67
2021/09/23 09:45:27;;;;;;;10.70;9.13;;;;;;;14.56;100.00;99905.09;1724780;81;22309;-60
2021/09/23 09:47:55;;;;;;;11.33;8.67;;;;;;;14.70;100.00;99907.08;1726858;81;21048;-59
2021/09/23 09:50:30;;;;;;;9.27;8.27;;;;;;;14.90;100.00;99908.68;1674564;84;21103;-61
2021/09/23 09:53:01;;;;;;;9.17;6.90;;;;;;;14.82;100.00;99910.57;1690087;82;21026;-66
2021/09/23 09:55:39;;;;;;;8.80;6.87;;;;;;;15.01;100.00;99911.88;1727049;81;21747;-60
2021/09/23 09:58:07;;;;;;;8.07;5.90;;;;;;;15.03;100.00;99908.51;1701685;82;21201;-61
2021/09/23 10:00:34;;;;;;;7.50;6.50;;;;;;;14.90;100.00;99909.48;1726237;81;21624;-62
2021/09/23 10:03:01;;;;;;;7.57;5.93;;;;;;;15.08;100.00;99904.73;1728425;81;21114;-61
2021/09/23 10:05:30;;;;;;;7.57;5.63;;;;;;;15.16;100.00;99903.63;1725793;81;21549;-60
2021/09/23 10:07:58;;;;;;;6.87;5.73;;;;;;;15.08;100.00;99900.28;1721702;81;21011;-60
2021/09/23 10:10:28;;;;;;;6.93;5.60;;;;;;;14.89;100.00;99907.88;1729856;81;21564;-57
2021/09/23 10:12:59;;;;;;;5.77;4.63;;;;;;;14.99;100.00;99908.14;1730015;81;21045;-67
2021/09/23 10:15:28;;;;;;;6.05;5.42;;;;;;;14.88;100.00;99907.56;1723862;80;21114;-60
2021/09/23 10:18:00;;;;;;;7.10;6.30;;;;;;;15.07;100.00;99908.36;1728065;81;21506;-59
2021/09/23 10:20:25;;;;;;;7.40;6.07;;;;;;;15.06;100.00;99906.77;1722238;81;21026;-59
2021/09/23 10:22:54;;;;;;;9.00;6.70;;;;;;;14.89;100.00;99903.12;1731250;81;20984;-66
2021/09/23 10:25:34;;;;;;;7.90;6.87;;;;;;;14.91;100.00;99910.27;1725238;81;21051;-60
2021/09/23 10:28:04;;;;;;;8.43;6.35;;;;;;;14.90;100.00;99907.37;1725540;81;21051;-60
2021/09/23 10:30:37;;;;;;;6.67;5.97;;;;;;;15.10;100.00;99906.61;1729691;81;20921;-66
2021/09/23 10:33:04;;;;;;;;;;;;;;;15.12;100.00;99908.52;1725185;81;21070;-58
2021/09/23 10:35:31;;;;;;;6.40;5.70;;;;;;;15.24;100.00;99903.31;1721857;80;21153;-60
2021/09/23 10:38:07;;;;;;;6.87;5.40;;;;;;;15.25;100.00;99905.70;1723696;81;20999;-60
2021/09/23 10:40:36;;;;;;;7.67;5.27;;;;;;;15.02;100.00;99905.09;1671531;84;20941;-59
2021/09/23 10:43:13;;;;;;;6.60;5.47;;;;;;;14.94;100.00;99915.09;1713167;82;20996;-63
2021/09/23 10:45:42;;;;;;;6.93;5.80;;;;;;;14.98;100.00;99909.17;1728520;81;21138;-62
2021/09/23 10:48:11;;;;;;;6.47;5.47;;;;;;;14.95;100.00;99905.67;1651823;84;20983;-62
2021/09/23 10:50:40;;;;;;;6.83;5.60;;;;;;;14.77;100.00;99904.36;1708075;82;21023;-58
2021/09/23 10:53:09;;;;;;;6.57;5.87;;;;;;;14.54;100.00;99913.67;1695913;82;21042;-60
2021/09/23 10:55:39;;;;;;;7.03;6.00;;;;;;;14.72;100.00;99913.41;1671706;84;21060;-59
2021/09/23 10:58:07;;;;;;;8.27;5.77;;;;;;;14.69;100.00;99912.53;1712421;81;21022;-59
2021/09/23 11:00:37;;;;;;;7.00;6.00;;;;;;;14.76;100.00;99908.02;1669629;83;21598;-58
2021/09/23 11:03:08;;;;;;;6.60;5.93;;;;;;;14.95;100.00;99908.30;1710361;82;20937;-59
2021/09/23 11:05:36;;;;;;;7.30;6.60;;;;;;;14.66;100.00;99903.77;1721836;81;21042;-66
2021/09/23 11:08:09;;;;;;;7.60;6.70;;;;;;;14.52;100.00;99905.75;1719173;81;21140;-58
2021/09/23 11:10:41;;;;;;;7.50;6.40;;;;;;;14.15;100.00;99916.13;1719315;81;20983;-57
2021/09/23 11:13:09;;;;;;;7.47;6.00;;;;;;;14.12;100.00;99911.31;1720983;81;21081;-60
2021/09/23 11:15:41;;;;;;;9.07;6.20;;;;;;;13.97;100.00;99909.02;1677775;82;20992;-61
2021/09/23 11:18:10;;;;;;;7.37;6.43;;;;;;;14.08;100.00;99906.21;1700080;82;21068;-64
2021/09/23 11:20:37;;;;;;;7.90;6.93;;;;;;;14.09;100.00;99910.42;1729925;81;21058;-57